Time;durP1;ratioP1;P1;durP2;ratioP2;P2;SDS_P1;SDS_P2;PMS_P1;PMS_P2;Temp;Humidity;BMP_temperature;BMP_pressure;BME280_temperature;BME280_humidity;BME280_pressure;Samples;Min_cycle;Max_cycle;Signal;HPM_P1;HPM_P2
2021/01/07 04:08:36;;;;;;;11.07;9.80;;;3.10;99.90;;;;;;5662615;23;20272;-75
2021/01/07 04:11:02;;;;;;;11.00;9.75;;;;;;;;;;5065554;28;20179;-78
2021/01/07 04:13:28;;;;;;;11.15;9.57;;;3.10;99.90;;;;;;5067910;28;20199;-76
2021/01/07 04:15:53;;;;;;;10.52;9.43;;;3.10;99.90;;;;;;5054336;28;20517;-76
2021/01/07 04:18:19;;;;;;;10.50;9.45;;;3.10;99.90;;;;;;5054457;28;20246;-80
2021/01/07 04:20:45;;;;;;;11.05;9.60;;;3.10;99.90;;;;;;5054191;28;20250;-78
2021/01/07 04:23:10;;;;;;;11.68;10.35;;;3.10;99.90;;;;;;5036127;28;20188;-78
2021/01/07 04:25:36;;;;;;;11.13;9.95;;;3.20;99.90;;;;;;5036790;28;20199;-77
2021/01/07 04:28:02;;;;;;;11.10;9.82;;;;;;;;;;5036410;28;20558;-75
2021/01/07 04:30:28;;;;;;;11.40;10.20;;;3.10;99.90;;;;;;5053634;28;20176;-75
2021/01/07 04:32:54;;;;;;;11.68;10.48;;;3.10;99.90;;;;;;5053553;28;20168;-78
2021/01/07 04:35:20;;;;;;;12.20;10.90;;;3.10;99.90;;;;;;5053895;28;20258;-79
2021/01/07 04:37:46;;;;;;;11.90;10.65;;;3.10;99.90;;;;;;5035988;28;20175;-80
2021/01/07 04:40:12;;;;;;;11.10;9.85;;;3.10;99.90;;;;;;5053647;28;20192;-78
2021/01/07 04:42:37;;;;;;;11.95;10.45;;;3.10;99.90;;;;;;5054276;28;20164;-78
2021/01/07 04:45:04;;;;;;;11.65;10.05;;;3.10;99.90;;;;;;5053776;28;20274;-78
2021/01/07 04:47:31;;;;;;;11.32;10.23;;;3.10;99.90;;;;;;5036082;28;20541;-77
2021/01/07 04:49:57;;;;;;;11.70;10.25;;;3.10;99.90;;;;;;5053692;28;20195;-75
2021/01/07 04:52:23;;;;;;;11.88;10.68;;;3.10;99.90;;;;;;5035673;28;20176;-76
2021/01/07 04:54:53;;;;;;;11.93;10.60;;;3.10;99.90;;;;;;5053102;28;20677;-78
2021/01/07 04:57:19;;;;;;;11.43;10.07;;;3.10;99.90;;;;;;5053750;28;20672;-79
2021/01/07 04:59:45;;;;;;;11.90;10.60;;;3.10;99.90;;;;;;5053480;28;20218;-78
2021/01/07 05:02:14;;;;;;;12.57;10.85;;;3.10;99.90;;;;;;5035742;28;20235;-80
2021/01/07 05:04:51;;;;;;;11.50;10.30;;;3.10;99.90;;;;;;5052935;28;20191;-78
2021/01/07 05:07:18;;;;;;;11.38;9.85;;;3.10;99.90;;;;;;5053383;28;20168;-78
2021/01/07 05:09:45;;;;;;;11.27;10.05;;;3.00;99.90;;;;;;5053305;28;20223;-78
2021/01/07 05:12:12;;;;;;;11.35;10.15;;;3.10;99.90;;;;;;5053426;28;20176;-78
2021/01/07 05:14:46;;;;;;;12.18;10.18;;;3.10;99.90;;;;;;5053678;28;20665;-78
2021/01/07 05:17:13;;;;;;;11.35;10.15;;;3.10;99.90;;;;;;5035395;28;20262;-78
2021/01/07 05:19:39;;;;;;;11.52;10.18;;;3.10;99.90;;;;;;5053511;28;20284;-78
2021/01/07 05:22:05;;;;;;;11.35;10.13;;;3.10;99.90;;;;;;5035205;28;20211;-78
2021/01/07 05:24:33;;;;;;;11.95;10.65;;;3.00;99.90;;;;;;5052674;28;20192;-76
2021/01/07 05:27:17;;;;;;;11.18;10.00;;;3.10;99.90;;;;;;5035072;28;20202;-75
2021/01/07 05:29:44;;;;;;;11.35;10.15;;;3.00;99.90;;;;;;5035467;28;20526;-75
2021/01/07 05:32:11;;;;;;;10.68;9.50;;;3.10;99.90;;;;;;5031794;28;20172;-74
2021/01/07 05:34:55;;;;;;;11.25;10.05;;;3.10;99.90;;;;;;5039969;28;20192;-75
2021/01/07 05:37:22;;;;;;;11.52;10.25;;;3.10;99.90;;;;;;5041187;28;20180;-75
2021/01/07 05:39:49;;;;;;;11.32;10.18;;;3.10;99.90;;;;;;5042253;28;20662;-74
2021/01/07 05:42:16;;;;;;;11.52;9.45;;;3.10;99.90;;;;;;5042021;28;20258;-77
2021/01/07 05:44:44;;;;;;;11.02;9.73;;;3.10;99.90;;;;;;5041645;28;20198;-75
2021/01/07 05:47:20;;;;;;;11.00;9.90;;;3.10;99.90;;;;;;5043491;28;20208;-76
2021/01/07 05:49:47;;;;;;;11.15;9.85;;;3.00;99.90;;;;;;5043534;28;20752;-76
2021/01/07 05:52:14;;;;;;;10.48;9.40;;;3.10;99.90;;;;;;5038098;28;20177;-77
2021/01/07 05:54:40;;;;;;;11.57;9.82;;;3.00;99.90;;;;;;5015051;28;20250;-78
2021/01/07 05:57:10;;;;;;;10.90;9.80;;;3.00;99.90;;;;;;5015208;28;20228;-79
2021/01/07 05:59:38;;;;;;;11.40;10.20;;;3.00;99.90;;;;;;5032801;28;20187;-79
2021/01/07 06:02:04;;;;;;;11.27;10.15;;;3.00;99.90;;;;;;5015610;28;20209;-79
2021/01/07 06:04:34;;;;;;;10.95;9.85;;;3.10;99.90;;;;;;5032394;28;20226;-80
2021/01/07 06:07:05;;;;;;;11.40;10.02;;;3.00;99.90;;;;;;5032678;28;20542;-79
2021/01/07 06:09:31;;;;;;;10.93;9.82;;;3.10;99.90;;;;;;5031537;28;20347;-80
2021/01/07 06:11:59;;;;;;;10.90;9.48;;;3.10;99.90;;;;;;5032904;28;20251;-80
2021/01/07 06:14:26;;;;;;;10.35;9.35;;;3.10;99.90;;;;;;5014615;28;20270;-79
2021/01/07 06:16:56;;;;;;;10.50;9.35;;;3.10;99.90;;;;;;5032569;28;20172;-79
2021/01/07 06:19:53;;;;;;;11.55;10.38;;;3.10;99.90;;;;;;5031774;28;20309;-79
2021/01/07 06:22:20;;;;;;;10.38;9.25;;;3.00;99.90;;;;;;5019279;28;20250;-78
2021/01/07 06:24:51;;;;;;;10.13;9.13;;;3.00;99.90;;;;;;5032062;28;20210;-79
2021/01/07 06:27:33;;;;;;;10.23;9.20;;;3.00;99.90;;;;;;5015795;28;20254;-76
2021/01/07 06:30:10;;;;;;;14.20;12.80;;;3.00;99.90;;;;;;5028719;28;20447;-80
2021/01/07 06:32:40;;;;;;;11.25;10.15;;;3.00;99.90;;;;;;5052255;28;20172;-81
2021/01/07 06:35:11;;;;;;;10.48;9.38;;;3.10;99.90;;;;;;5030779;28;20547;-79
2021/01/07 06:37:40;;;;;;;10.68;9.60;;;3.00;99.90;;;;;;5033368;28;20608;-81
2021/01/07 06:40:11;;;;;;;9.95;8.88;;;3.10;99.90;;;;;;5022709;28;20207;-81
2021/01/07 06:42:39;;;;;;;10.70;9.20;;;3.00;99.90;;;;;;5033005;28;20169;-81
2021/01/07 06:45:07;;;;;;;10.50;9.35;;;3.10;99.90;;;;;;5043073;28;20183;-81
2021/01/07 06:47:33;;;;;;;11.38;9.95;;;3.10;99.90;;;;;;5025714;28;20179;-80
2021/01/07 06:50:03;;;;;;;11.60;9.82;;;3.10;99.90;;;;;;5032293;28;20191;-80
2021/01/07 06:52:45;;;;;;;10.77;9.60;;;3.10;99.90;;;;;;5027056;28;20603;-80
2021/01/07 06:55:13;;;;;;;9.95;9.00;;;3.10;99.90;;;;;;5020507;28;20192;-80
2021/01/07 06:57:50;;;;;;;10.23;9.20;;;3.10;99.90;;;;;;5032848;28;20172;-80
2021/01/07 07:00:17;;;;;;;10.30;9.30;;;3.10;99.90;;;;;;5031815;28;20175;-80
2021/01/07 07:03:10;;;;;;;9.93;8.82;;;3.10;99.90;;;;;;5014094;28;20181;-80
2021/01/07 07:05:37;;;;;;;11.50;9.38;;;3.10;99.90;;;;;;5050353;28;20176;-81
2021/01/07 07:08:16;;;;;;;9.80;8.80;;;3.00;99.90;;;;;;5051667;28;20191;-81
2021/01/07 07:10:51;;;;;;;9.88;8.88;;;3.10;99.90;;;;;;5033610;28;20270;-81
2021/01/07 07:13:25;;;;;;;10.57;9.32;;;3.10;99.90;;;;;;5050616;28;20199;-81
2021/01/07 07:15:51;;;;;;;10.23;9.18;;;3.10;99.90;;;;;;5016637;28;20179;-81
2021/01/07 07:18:33;;;;;;;10.00;8.30;;;3.10;99.90;;;;;;5050657;28;20198;-81
2021/01/07 07:21:14;;;;;;;10.20;9.10;;;3.00;99.90;;;;;;5033819;28;20223;-81
2021/01/07 07:23:42;;;;;;;9.38;8.32;;;3.00;99.90;;;;;;5051028;28;20631;-81
2021/01/07 07:26:13;;;;;;;9.95;8.95;;;3.30;99.90;;;;;;5051653;28;20164;-81
2021/01/07 07:28:43;;;;;;;10.43;9.20;;;3.00;99.90;;;;;;5036090;28;20192;-81
2021/01/07 07:31:09;;;;;;;10.23;8.65;;;3.00;99.90;;;;;;5055683;28;20168;-81
2021/01/07 07:33:38;;;;;;;9.38;8.43;;;2.80;99.90;;;;;;5055289;28;20198;-81
2021/01/07 07:36:06;;;;;;;9.98;8.98;;;3.00;99.90;;;;;;5055504;28;20650;-81
2021/01/07 07:38:37;;;;;;;10.13;9.00;;;3.00;99.90;;;;;;5033450;28;20794;-81
2021/01/07 07:41:11;;;;;;;11.10;9.23;;;3.10;99.90;;;;;;5035386;28;20288;-82
2021/01/07 07:43:38;;;;;;;9.98;8.70;;;3.00;99.90;;;;;;5033703;28;20187;-81
2021/01/07 07:46:06;;;;;;;10.70;9.60;;;3.00;99.90;;;;;;5035317;28;20172;-81
2021/01/07 07:48:34;;;;;;;9.57;8.63;;;3.10;99.90;;;;;;5035006;28;20208;-81
2021/01/07 07:51:13;;;;;;;10.75;9.18;;;2.80;99.90;;;;;;5035123;28;20171;-80
2021/01/07 07:53:40;;;;;;;9.77;8.77;;;2.90;99.90;;;;;;5016727;28;20223;-81
2021/01/07 07:56:26;;;;;;;10.82;9.60;;;3.10;99.90;;;;;;5034987;28;20203;-80
2021/01/07 07:59:05;;;;;;;9.90;8.90;;;3.30;99.90;;;;;;5034905;28;20192;-80
2021/01/07 08:01:45;;;;;;;10.73;9.55;;;3.00;99.90;;;;;;5033650;28;20247;-81
2021/01/07 08:04:18;;;;;;;10.50;9.40;;;3.10;99.90;;;;;;5034666;28;20196;-81
2021/01/07 08:06:45;;;;;;;11.32;9.88;;;3.10;99.90;;;;;;5034875;28;20634;-80
2021/01/07 08:09:13;;;;;;;9.95;8.98;;;3.10;99.90;;;;;;5030995;28;20271;-80
2021/01/07 08:11:53;;;;;;;10.32;8.90;;;3.10;99.90;;;;;;5034518;28;20692;-81
2021/01/07 08:14:20;;;;;;;11.68;10.45;;;2.90;99.90;;;;;;5016848;28;20192;-81
2021/01/07 08:16:46;;;;;;;10.77;9.68;;;3.20;99.90;;;;;;5033232;28;20180;-76
2021/01/07 08:19:38;;;;;;;10.48;8.93;;;3.10;99.90;;;;;;5044329;28;20681;-76
2021/01/07 08:22:04;;;;;;;9.43;8.50;;;3.10;99.90;;;;;;5053791;28;20704;-76
2021/01/07 08:24:30;;;;;;;11.23;9.35;;;3.20;99.90;;;;;;5035910;28;20283;-76
2021/01/07 08:27:16;;;;;;;11.23;10.02;;;3.10;99.90;;;;;;5036427;28;20641;-77
2021/01/07 08:29:45;;;;;;;10.10;9.10;;;3.00;99.90;;;;;;5036416;28;20199;-75
2021/01/07 08:32:15;;;;;;;10.25;9.23;;;3.10;99.90;;;;;;5054321;28;20214;-76
2021/01/07 08:34:41;;;;;;;10.32;9.25;;;3.10;99.90;;;;;;5054301;28;20274;-81
2021/01/07 08:37:11;;;;;;;10.57;9.48;;;3.10;99.90;;;;;;5054157;28;20279;-75
2021/01/07 08:39:39;;;;;;;11.60;10.40;;;3.10;99.90;;;;;;5042820;28;20203;-75
2021/01/07 08:42:05;;;;;;;10.57;9.48;;;3.10;99.90;;;;;;5034004;28;20216;-76
2021/01/07 08:44:31;;;;;;;10.45;9.35;;;3.10;99.90;;;;;;5041653;28;20567;-75
2021/01/07 08:46:57;;;;;;;10.88;8.55;;;3.10;99.90;;;;;;5044674;28;20171;-76
2021/01/07 08:49:23;;;;;;;10.30;9.30;;;3.20;99.90;;;;;;5032347;28;20191;-76
2021/01/07 08:51:50;;;;;;;10.38;9.38;;;3.10;99.90;;;;;;5025413;28;20216;-75
2021/01/07 08:54:24;;;;;;;10.98;9.77;;;3.10;99.90;;;;;;5028581;28;20208;-76
2021/01/07 08:56:55;;;;;;;10.70;9.57;;;3.10;99.90;;;;;;5030907;28;20172;-76
2021/01/07 08:59:22;;;;;;;11.02;9.32;;;3.20;99.90;;;;;;5033810;28;20231;-76
2021/01/07 09:02:04;;;;;;;10.52;9.43;;;3.20;99.90;;;;;;5026848;28;20187;-76
2021/01/07 09:04:32;;;;;;;10.38;9.10;;;3.20;99.90;;;;;;5041344;28;20192;-77
2021/01/07 09:07:14;;;;;;;11.48;9.65;;;3.20;99.90;;;;;;5031506;28;20200;-77
2021/01/07 09:09:41;;;;;;;10.70;9.60;;;2.80;99.90;;;;;;5043451;28;20224;-78
2021/01/07 09:12:15;;;;;;;11.98;10.07;;;3.20;99.90;;;;;;5042177;28;20252;-76
2021/01/07 09:14:54;;;;;;;11.65;9.48;;;3.20;99.90;;;;;;5042229;28;20211;-77
2021/01/07 09:17:22;;;;;;;10.73;9.63;;;3.20;99.90;;;;;;5043341;28;20172;-78
2021/01/07 09:19:48;;;;;;;10.77;9.68;;;3.20;99.90;;;;;;5023850;28;20189;-76
2021/01/07 09:22:18;;;;;;;10.32;9.32;;;3.40;99.90;;;;;;5043601;28;20215;-76
2021/01/07 09:24:44;;;;;;;11.57;9.30;;;3.40;99.90;;;;;;5043372;28;20601;-77
2021/01/07 09:27:15;;;;;;;11.50;10.30;;;3.20;99.90;;;;;;5024018;28;20164;-77
2021/01/07 09:29:42;;;;;;;10.80;9.70;;;3.20;99.90;;;;;;5041411;28;20200;-78
2021/01/07 09:32:09;;;;;;;11.75;10.55;;;3.20;99.90;;;;;;5041648;28;20168;-78
2021/01/07 09:34:35;;;;;;;10.70;9.60;;;3.40;99.90;;;;;;5042634;28;20267;-76
2021/01/07 09:37:14;;;;;;;11.00;9.77;;;3.20;99.90;;;;;;5043150;28;20735;-79
2021/01/07 09:39:41;;;;;;;10.68;9.57;;;3.20;99.90;;;;;;5042957;28;20275;-78
2021/01/07 09:42:08;;;;;;;13.55;10.45;;;3.20;99.90;;;;;;5041559;28;20204;-77
2021/01/07 09:44:34;;;;;;;9.93;8.93;;;3.30;99.90;;;;;;5026367;28;20267;-77
2021/01/07 09:47:01;;;;;;;10.32;9.18;;;3.20;99.90;;;;;;5044213;28;20587;-77
2021/01/07 09:49:27;;;;;;;11.43;10.23;;;3.30;99.90;;;;;;5029156;28;20206;-74
2021/01/07 09:51:54;;;;;;;10.80;9.70;;;3.20;99.90;;;;;;5052508;28;20167;-75
2021/01/07 09:54:23;;;;;;;11.25;10.15;;;3.30;99.90;;;;;;5020350;28;20257;-75
2021/01/07 09:56:53;;;;;;;12.10;10.48;;;3.30;99.90;;;;;;5040559;28;20172;-74
2021/01/07 09:59:20;;;;;;;11.05;9.95;;;3.30;99.90;;;;;;5038067;28;20200;-75
2021/01/07 10:01:46;;;;;;;10.32;9.25;;;3.20;99.90;;;;;;5032306;28;20212;-76
2021/01/07 10:04:13;;;;;;;11.50;9.82;;;3.10;99.90;;;;;;5032966;28;20188;-75
2021/01/07 10:06:40;;;;;;;11.25;10.05;;;3.30;99.90;;;;;;5014780;28;20180;-75
2021/01/07 10:09:06;;;;;;;11.15;9.88;;;3.30;99.90;;;;;;5027936;28;20232;-73
2021/01/07 10:11:32;;;;;;;12.02;10.05;;;3.30;99.90;;;;;;5032855;28;20183;-74
2021/01/07 10:13:58;;;;;;;12.68;10.73;;;3.30;99.90;;;;;;5040130;28;20204;-75
2021/01/07 10:16:24;;;;;;;12.40;11.07;;;3.30;99.90;;;;;;5041885;28;20216;-74
2021/01/07 10:18:49;;;;;;;12.88;11.57;;;3.30;99.90;;;;;;5040983;28;20242;-75
2021/01/07 10:21:20;;;;;;;11.75;10.52;;;3.30;99.90;;;;;;5040078;28;20279;-74
2021/01/07 10:23:48;;;;;;;12.70;11.40;;;3.40;99.90;;;;;;5035529;28;20196;-75
2021/01/07 10:26:17;;;;;;;12.98;11.57;;;3.40;99.90;;;;;;5019274;28;20168;-75
2021/01/07 10:28:45;;;;;;;12.93;11.25;;;3.40;99.90;;;;;;5033307;28;20616;-75
2021/01/07 10:31:12;;;;;;;13.02;11.63;;;3.40;99.90;;;;;;5052069;28;20274;-75
2021/01/07 10:33:39;;;;;;;12.05;10.73;;;3.40;99.90;;;;;;5034178;28;20238;-75
2021/01/07 10:36:05;;;;;;;13.20;11.80;;;3.40;99.90;;;;;;5046120;28;20255;-72
2021/01/07 10:38:32;;;;;;;12.75;11.45;;;3.50;99.90;;;;;;5041310;28;20301;-74
2021/01/07 10:41:00;;;;;;;12.73;11.43;;;3.50;99.90;;;;;;5025272;28;20196;-74
2021/01/07 10:43:28;;;;;;;14.02;11.27;;;3.50;99.90;;;;;;5039298;28;20258;-74
2021/01/07 10:45:54;;;;;;;13.23;11.82;;;3.50;99.90;;;;;;5039853;28;20259;-74
2021/01/07 10:48:22;;;;;;;13.60;12.02;;;3.50;99.90;;;;;;5040450;28;20265;-75
2021/01/07 10:50:52;;;;;;;13.10;11.35;;;3.50;99.90;;;;;;5048937;28;20172;-74
2021/01/07 10:53:43;;;;;;;12.65;11.35;;;3.50;99.90;;;;;;5051533;28;20191;-74
2021/01/07 10:56:24;;;;;;;14.27;12.77;;;3.50;99.90;;;;;;5051177;28;20206;-75
2021/01/07 10:59:10;;;;;;;12.30;11.00;;;3.50;99.90;;;;;;5051299;28;20261;-74
2021/01/07 11:02:03;;;;;;;14.30;11.20;;;3.60;99.90;;;;;;5037316;28;20294;-74
2021/01/07 11:04:56;;;;;;;12.38;11.07;;;3.60;99.90;;;;;;5055960;28;20191;-75
2021/01/07 11:07:34;;;;;;;11.63;10.32;;;3.60;99.90;;;;;;5037544;28;20661;-74
2021/01/07 11:10:04;;;;;;;14.18;11.48;;;3.60;99.90;;;;;;5049781;28;20227;-74
2021/01/07 11:12:40;;;;;;;11.88;10.68;;;3.60;99.90;;;;;;5034400;28;20183;-74
2021/01/07 11:15:11;;;;;;;12.77;11.13;;;3.60;99.90;;;;;;5034672;28;20629;-74
2021/01/07 11:17:40;;;;;;;12.32;10.52;;;3.60;99.90;;;;;;5037303;28;20185;-73
2021/01/07 11:20:07;;;;;;;11.68;10.48;;;3.60;99.90;;;;;;5045506;28;20172;-74
2021/01/07 11:22:34;;;;;;;12.40;11.10;;;3.60;99.90;;;;;;5045773;28;20181;-75
2021/01/07 11:25:01;;;;;;;12.38;11.07;;;3.60;99.90;;;;;;5045872;28;20199;-74
2021/01/07 11:27:33;;;;;;;16.00;11.93;;;3.60;99.90;;;;;;5049543;28;20174;-74
2021/01/07 11:30:02;;;;;;;13.07;11.35;;;3.60;99.90;;;;;;5047511;28;20195;-73
2021/01/07 11:32:30;;;;;;;12.68;11.38;;;3.70;99.90;;;;;;5038331;28;20176;-75
2021/01/07 11:34:58;;;;;;;12.05;10.85;;;3.70;99.90;;;;;;5017899;28;20200;-73
2021/01/07 11:37:52;;;;;;;13.25;11.85;;;3.60;99.90;;;;;;5035303;28;20168;-74
2021/01/07 11:40:48;;;;;;;13.20;11.70;;;3.70;99.90;;;;;;5020978;28;20200;-74
2021/01/07 11:43:51;;;;;;;13.13;11.43;;;3.70;99.90;;;;;;5032979;28;20298;-74
2021/01/07 11:46:18;;;;;;;12.05;10.88;;;3.70;99.90;;;;;;5033405;28;20613;-72
2021/01/07 11:48:56;;;;;;;12.35;10.75;;;3.80;99.90;;;;;;5045627;28;20278;-74
2021/01/07 11:51:22;;;;;;;13.60;11.55;;;3.70;99.90;;;;;;5045767;28;20200;-74
2021/01/07 11:53:49;;;;;;;13.73;12.32;;;3.80;99.90;;;;;;5043175;28;20231;-74
2021/01/07 11:56:16;;;;;;;14.55;12.32;;;3.80;99.90;;;;;;5048600;28;20160;-74
2021/01/07 11:58:42;;;;;;;13.30;11.90;;;3.80;99.90;;;;;;5036805;28;20231;-75
2021/01/07 12:01:09;;;;;;;13.95;12.18;;;3.80;99.90;;;;;;5036854;28;20752;-78
2021/01/07 12:03:36;;;;;;;13.77;12.13;;;3.80;99.90;;;;;;5036806;28;20196;-77
2021/01/07 12:06:08;;;;;;;13.02;11.63;;;3.70;99.90;;;;;;5036638;28;20645;-76
2021/01/07 12:08:52;;;;;;;14.32;12.40;;;3.80;99.90;;;;;;5054088;28;20561;-75
2021/01/07 12:11:30;;;;;;;13.65;11.90;;;3.80;99.90;;;;;;5054640;28;20194;-74
2021/01/07 12:14:12;;;;;;;12.30;10.98;;;3.80;99.90;;;;;;5036160;28;20343;-75
2021/01/07 12:16:57;;;;;;;13.50;12.10;;;3.80;99.90;;;;;;5036392;28;20203;-75
2021/01/07 12:19:25;;;;;;;13.20;11.63;;;3.80;99.90;;;;;;5035492;28;20196;-74
2021/01/07 12:21:51;;;;;;;13.80;12.40;;;3.90;99.90;;;;;;5054075;28;20258;-75
2021/01/07 12:24:19;;;;;;;13.43;12.02;;;3.90;99.90;;;;;;5040614;28;20208;-79
2021/01/07 12:26:49;;;;;;;13.55;11.68;;;3.90;99.90;;;;;;5035445;28;20271;-78
2021/01/07 12:29:23;;;;;;;14.57;12.50;;;3.90;99.90;;;;;;5031790;28;20191;-78
2021/01/07 12:31:50;;;;;;;12.85;11.55;;;3.90;99.90;;;;;;5050966;28;20177;-79
2021/01/07 12:34:24;;;;;;;14.15;12.55;;;3.90;99.90;;;;;;5015690;28;20199;-78
2021/01/07 12:37:04;;;;;;;13.05;11.68;;;4.00;99.90;;;;;;5034250;28;20622;-79
2021/01/07 12:39:54;;;;;;;12.63;11.43;;;4.00;99.90;;;;;;5020786;28;20713;-79
2021/01/07 12:42:33;;;;;;;13.57;11.73;;;4.10;99.90;;;;;;5037623;28;20200;-79
2021/01/07 12:45:02;;;;;;;13.20;11.80;;;4.00;99.90;;;;;;5042708;28;20199;-78
2021/01/07 12:47:27;;;;;;;12.48;11.27;;;4.00;99.90;;;;;;5018004;28;20184;-78
2021/01/07 12:49:56;;;;;;;13.60;12.20;;;3.90;99.90;;;;;;5033969;28;20193;-79
2021/01/07 12:52:24;;;;;;;13.32;12.02;;;4.00;99.90;;;;;;5046089;28;20186;-79
2021/01/07 12:54:57;;;;;;;13.75;12.15;;;4.00;99.90;;;;;;5015829;28;20192;-81
2021/01/07 12:57:26;;;;;;;14.15;12.48;;;4.00;99.90;;;;;;5033847;28;20201;-80
2021/01/07 12:59:52;;;;;;;16.27;13.45;;;4.00;99.90;;;;;;5051349;28;20739;-81
2021/01/07 13:02:39;;;;;;;13.23;11.18;;;4.00;99.90;;;;;;5034945;28;20215;-80
2021/01/07 13:05:21;;;;;;;14.13;12.63;;;4.00;99.90;;;;;;5053566;28;20191;-82
2021/01/07 13:07:48;;;;;;;13.77;12.38;;;4.00;99.90;;;;;;5036267;28;20172;-83
2021/01/07 13:10:15;;;;;;;13.70;12.30;;;4.00;99.90;;;;;;5035945;28;20257;-80
2021/01/07 13:12:42;;;;;;;14.32;12.52;;;4.00;99.90;;;;;;5033553;28;20179;-77
2021/01/07 13:15:11;;;;;;;13.77;12.10;;;4.00;99.90;;;;;;5027831;28;20176;-78
2021/01/07 13:17:37;;;;;;;13.90;12.40;;;4.00;99.90;;;;;;5019825;28;20264;-77
2021/01/07 13:20:05;;;;;;;13.48;11.85;;;4.00;99.90;;;;;;5049275;28;20266;-77
2021/01/07 13:22:31;;;;;;;15.52;14.02;;;4.00;99.90;;;;;;5034506;28;20536;-75
2021/01/07 13:24:59;;;;;;;15.30;13.70;;;4.00;99.90;;;;;;5041127;28;20278;-77
2021/01/07 13:27:25;;;;;;;13.73;12.32;;;4.00;99.90;;;;;;5040319;28;20165;-78
2021/01/07 13:29:53;;;;;;;14.35;12.88;;;4.00;99.90;;;;;;5041822;28;20192;-78
2021/01/07 13:32:20;;;;;;;14.25;12.80;;;4.00;99.90;;;;;;5027983;28;20175;-78
2021/01/07 13:34:46;;;;;;;13.88;12.27;;;4.00;99.90;;;;;;5048768;28;20192;-78
2021/01/07 13:37:18;;;;;;;13.73;12.23;;;4.00;99.90;;;;;;5044558;28;20188;-77
2021/01/07 13:39:44;;;;;;;15.05;13.45;;;4.20;99.90;;;;;;5024616;28;20195;-77
2021/01/07 13:42:13;;;;;;;14.98;13.25;;;4.00;99.90;;;;;;5043662;28;20382;-81
2021/01/07 13:44:53;;;;;;;15.23;13.48;;;4.00;99.90;;;;;;5042269;28;20196;-78
2021/01/07 13:47:21;;;;;;;16.10;13.52;;;4.00;99.90;;;;;;5032074;28;20176;-77
2021/01/07 13:49:54;;;;;;;16.55;14.73;;;4.00;99.90;;;;;;5035580;28;20211;-77
2021/01/07 13:52:21;;;;;;;14.52;13.02;;;4.00;99.90;;;;;;5042228;28;20177;-75
2021/01/07 13:54:48;;;;;;;15.13;13.48;;;4.10;99.90;;;;;;5034745;28;20196;-83
2021/01/07 13:57:14;;;;;;;13.38;12.02;;;4.10;99.90;;;;;;5034919;28;20175;-81
2021/01/07 13:59:40;;;;;;;14.68;13.18;;;4.10;99.90;;;;;;5051401;28;20195;-81
2021/01/07 14:02:07;;;;;;;13.77;12.27;;;4.10;99.90;;;;;;5050366;28;20208;-78
2021/01/07 14:04:40;;;;;;;15.38;13.77;;;4.10;99.90;;;;;;5051944;28;20203;-79
2021/01/07 14:07:11;;;;;;;14.20;12.30;;;4.20;99.90;;;;;;5052741;28;20222;-79
2021/01/07 14:09:42;;;;;;;13.00;11.70;;;4.10;99.90;;;;;;5052132;28;20273;-79
2021/01/07 14:12:14;;;;;;;16.02;12.80;;;4.20;99.90;;;;;;5052891;28;20390;-79
2021/01/07 14:14:44;;;;;;;13.75;12.35;;;4.10;99.90;;;;;;5052205;28;20196;-79
2021/01/07 14:17:10;;;;;;;14.88;13.30;;;4.10;99.90;;;;;;5052428;28;20799;-78
2021/01/07 14:19:37;;;;;;;14.40;12.80;;;4.10;99.90;;;;;;5034186;28;20200;-78
2021/01/07 14:22:06;;;;;;;14.23;12.73;;;4.10;99.90;;;;;;5052354;28;20715;-78
2021/01/07 14:24:36;;;;;;;14.68;12.60;;;4.10;99.90;;;;;;5051536;28;20188;-79
2021/01/07 14:27:20;;;;;;;13.85;12.45;;;4.10;99.90;;;;;;5052230;28;20180;-79
2021/01/07 14:29:51;;;;;;;14.75;13.15;;;4.10;99.90;;;;;;5034348;28;20271;-78
2021/01/07 14:32:18;;;;;;;15.10;13.05;;;4.20;99.90;;;;;;5052579;28;20368;-78
2021/01/07 14:34:46;;;;;;;12.80;11.48;;;4.20;99.90;;;;;;5052041;28;20198;-78
2021/01/07 14:37:16;;;;;;;14.75;13.07;;;4.10;99.90;;;;;;5052367;28;20535;-77
2021/01/07 14:39:42;;;;;;;14.57;13.07;;;4.10;99.90;;;;;;5051825;28;20219;-79
2021/01/07 14:42:10;;;;;;;14.38;12.90;;;4.20;99.90;;;;;;5052155;28;20200;-78
2021/01/07 14:44:36;;;;;;;16.63;13.25;;;4.10;99.90;;;;;;5052140;28;20271;-78
2021/01/07 14:47:04;;;;;;;15.20;12.98;;;4.10;99.90;;;;;;5051677;28;20186;-79
2021/01/07 14:49:31;;;;;;;15.52;13.90;;;4.10;99.90;;;;;;5041445;28;20244;-79
2021/01/07 14:51:58;;;;;;;18.88;16.20;;;4.10;99.90;;;;;;5023369;28;20181;-78
2021/01/07 14:54:29;;;;;;;21.52;19.25;;;4.00;99.90;;;;;;5039349;28;20200;-78
2021/01/07 14:57:05;;;;;;;26.70;23.00;;;4.00;99.90;;;;;;5038731;28;20372;-77
2021/01/07 15:00:07;;;;;;;25.13;19.60;;;3.90;99.90;;;;;;5030730;28;20577;-78
2021/01/07 15:02:51;;;;;;;22.88;19.65;;;3.90;99.90;;;;;;4943265;29;20291;-78
2021/01/07 15:05:22;;;;;;;16.83;15.02;;;3.90;99.90;;;;;;4943000;29;20183;-79
2021/01/07 15:08:11;;;;;;;17.10;14.75;;;3.90;99.90;;;;;;4938156;29;20176;-79
2021/01/07 15:10:41;;;;;;;15.38;13.02;;;3.80;99.90;;;;;;4947618;29;20376;-78
2021/01/07 15:13:19;;;;;;;15.27;13.68;;;3.80;99.90;;;;;;4939846;29;20305;-78
2021/01/07 15:15:47;;;;;;;17.88;15.15;;;3.80;99.90;;;;;;4940692;29;20179;-78
2021/01/07 15:18:30;;;;;;;19.50;14.77;;;3.70;99.90;;;;;;4941325;29;20229;-77
2021/01/07 15:21:06;;;;;;;16.67;13.70;;;3.60;99.90;;;;;;4942099;29;20215;-78
2021/01/07 15:23:52;;;;;;;16.52;14.07;;;3.60;99.90;;;;;;4946072;29;20242;-78
2021/01/07 15:26:37;;;;;;;14.65;13.15;;;3.50;99.90;;;;;;4929731;29;20183;-80
2021/01/07 15:29:08;;;;;;;14.65;12.70;;;3.50;99.90;;;;;;4941626;29;20200;-79
2021/01/07 15:31:36;;;;;;;13.05;11.65;;;3.40;99.90;;;;;;4939375;29;20184;-80
2021/01/07 15:34:12;;;;;;;15.07;13.23;;;3.30;99.90;;;;;;4946875;29;20706;-81
2021/01/07 15:36:56;;;;;;;14.40;12.88;;;3.20;99.90;;;;;;4974177;28;20187;-79
2021/01/07 15:40:16;;;;;;;19.17;14.18;;;3.20;99.90;;;;;;5028180;28;20199;-84
2021/01/07 15:43:08;;;;;;;14.07;12.57;;;3.10;99.90;;;;;;4976366;28;20220;-80
2021/01/07 15:45:52;;;;;;;16.52;14.48;;;3.10;99.90;;;;;;5039673;28;20222;-80
2021/01/07 15:48:31;;;;;;;16.33;13.57;;;3.00;99.90;;;;;;5024131;28;20231;-83
2021/01/07 15:51:35;;;;;;;17.77;16.00;;;3.00;99.90;;;;;;5035537;28;20407;-82
2021/01/07 15:54:10;;;;;;;15.23;13.73;;;2.90;99.90;;;;;;5033871;28;20291;-80
2021/01/07 15:57:01;;;;;;;12.93;11.45;;;2.90;99.90;;;;;;5044731;28;20175;-79
2021/01/07 15:59:54;;;;;;;13.68;11.90;;;2.90;99.90;;;;;;5035251;28;20185;-79
2021/01/07 16:02:21;;;;;;;14.85;13.35;;;2.90;99.90;;;;;;5045251;28;20215;-79
2021/01/07 16:05:06;;;;;;;14.45;12.90;;;3.00;99.90;;;;;;5027780;28;20192;-80
2021/01/07 16:07:38;;;;;;;15.43;13.63;;;2.90;99.90;;;;;;5049126;28;20263;-79
2021/01/07 16:10:05;;;;;;;16.45;14.20;;;2.90;99.90;;;;;;5047071;28;20251;-78
2021/01/07 16:12:32;;;;;;;17.30;14.05;;;2.90;99.90;;;;;;5043532;28;20168;-79
2021/01/07 16:14:59;;;;;;;19.42;14.73;;;2.90;99.90;;;;;;5017107;28;20738;-79
2021/01/07 16:17:27;;;;;;;17.80;14.82;;;3.00;99.90;;;;;;5035718;28;20251;-79
2021/01/07 16:19:58;;;;;;;17.33;14.52;;;3.10;99.90;;;;;;5037038;28;20193;-78
2021/01/07 16:22:27;;;;;;;16.10;14.35;;;3.00;99.90;;;;;;5049275;28;20216;-83
2021/01/07 16:25:04;;;;;;;16.30;13.57;;;3.00;99.90;;;;;;5047023;28;20685;-81
2021/01/07 16:27:38;;;;;;;16.20;13.63;;;3.00;99.90;;;;;;5016255;28;20540;-82
2021/01/07 16:30:06;;;;;;;16.30;14.60;;;3.00;99.90;;;;;;5039362;28;20206;-80
2021/01/07 16:32:32;;;;;;;21.77;17.85;;;3.00;99.90;;;;;;5024215;28;20717;-84
2021/01/07 16:34:58;;;;;;;17.85;15.23;;;3.00;99.90;;;;;;5046873;28;20196;-83
2021/01/07 16:37:25;;;;;;;19.38;16.50;;;3.10;99.90;;;;;;5045476;28;20168;-81
2021/01/07 16:39:51;;;;;;;20.23;17.33;;;3.00;99.90;;;;;;5041558;28;20187;-81
2021/01/07 16:42:17;;;;;;;19.88;16.95;;;3.10;99.90;;;;;;5037406;28;20282;-84
2021/01/07 16:44:46;;;;;;;20.90;17.05;;;3.00;99.90;;;;;;5036948;28;20682;-83
2021/01/07 16:47:13;;;;;;;18.65;16.50;;;3.10;99.90;;;;;;5032963;28;20611;-83
2021/01/07 16:49:39;;;;;;;17.33;15.52;;;3.10;99.90;;;;;;5043252;28;20188;-81
2021/01/07 16:52:05;;;;;;;16.88;15.07;;;3.10;99.90;;;;;;5031351;28;20203;-85
2021/01/07 16:54:30;;;;;;;17.50;15.07;;;3.10;99.90;;;;;;5035586;28;20206;-82
2021/01/07 16:56:56;;;;;;;16.85;14.70;;;3.10;99.90;;;;;;5025513;28;20177;-76
2021/01/07 16:59:23;;;;;;;18.90;15.90;;;3.20;99.90;;;;;;5041501;28;20669;-76
2021/01/07 17:01:49;;;;;;;17.85;15.95;;;3.10;99.90;;;;;;5052790;28;20547;-77
2021/01/07 17:04:14;;;;;;;17.45;14.75;;;3.00;99.90;;;;;;5035334;28;20246;-77
2021/01/07 17:06:40;;;;;;;20.08;16.63;;;3.00;99.90;;;;;;5044544;28;20343;-77
2021/01/07 17:09:06;;;;;;;18.48;14.85;;;4.00;99.90;;;;;;5015014;28;20224;-77